NKI weather

Naukati Bay Seaplane Base
Tuxekan Island, Alaska, United States

Public forecast

Using degrees Fahrenheit for public forecast. Weather courtesy of forecast.io.

Closest aviation weather report (METAR) to Naukati Bay Seaplane Base

Closest report is Klawock Airport, 17.0 nm (31.5 km) SSE. Retrieved 2019/11/15 20:53 UTC (1 hour ago):

PAKW 152053Z AUTO 15009G16KT 7SM -RA FEW031 BKN040 OVC060 09/07 A2966 RMK SLP045 P0001 60003 T00890067 51016 TSNO VIA AUTODIAL

Closest aviation forecast (TAF) to Naukati Bay Seaplane Base

Closest forecast is Klawock Airport, 17.0 nm (31.5 km) SSE. Retrieved 2019/11/15 18:33 UTC (3 hours ago):

TAF PAKW 151731Z 1518/1618 17007KT P6SM -SHRA FEW030 SCT035 OVC050 TEMPO 1518/1522 SCT030 BKN035 OVC050 FM152200 18006KT 5SM -SHRA BKN020 OVC035 FM160400 17004KT 6SM -SHRA OVC020 FM160800 16004KT P6SM -SHRA SCT020 OVC050 WS020/17030KT FM161400 07010KT 6SM -SHRA BR OVC025 WS020/14060KT AMD LTD TO CLD VIS AND WIND